Time;durP1;ratioP1;P1;durP2;ratioP2;P2;SDS_P1;SDS_P2;PMS_P1;PMS_P2;Temp;Humidity;BMP_temperature;BMP_pressure;BME280_temperature;BME280_humidity;BME280_pressure;Samples;Min_cycle;Max_cycle;Signal;HPM_P1;HPM_P2
2022/11/03 00:01:58;;;;;;;7.70;1.60;;;;;;;7.67;100.00;99041.44;6175718;23;20209;-59
2022/11/03 00:04:25;;;;;;;3.27;1.37;;;;;;;7.64;100.00;99039.91;6171502;23;20213;-59
2022/11/03 00:06:54;;;;;;;9.27;2.10;;;;;;;7.64;100.00;99037.31;6176020;23;20204;-59
2022/11/03 00:09:22;;;;;;;3.67;1.13;;;;;;;7.65;100.00;99028.56;6172989;23;20242;-59
2022/11/03 00:11:51;;;;;;;6.43;1.50;;;;;;;7.60;100.00;99028.13;6176516;23;20208;-61
2022/11/03 00:14:19;;;;;;;11.57;1.67;;;;;;;7.59;100.00;99028.22;6172280;23;20254;-58
2022/11/03 00:16:46;;;;;;;6.40;1.50;;;;;;;7.60;100.00;99032.47;6175700;23;20199;-58
2022/11/03 00:19:15;;;;;;;4.57;1.40;;;;;;;7.52;100.00;99031.28;6172458;23;20195;-58
2022/11/03 00:21:41;;;;;;;6.30;1.50;;;;;;;7.47;100.00;99024.84;6176294;23;20213;-58
2022/11/03 00:24:09;;;;;;;5.37;1.40;;;;;;;7.49;100.00;99025.53;6175563;23;20211;-58
2022/11/03 00:26:37;;;;;;;6.50;1.40;;;;;;;7.40;100.00;99019.31;6172855;23;20209;-58
2022/11/03 00:29:07;;;;;;;8.43;1.50;;;;;;;7.36;100.00;99023.91;6175942;23;20207;-59
2022/11/03 00:31:36;;;;;;;8.07;1.33;;;;;;;7.38;100.00;99006.44;6172366;23;20204;-58
2022/11/03 00:34:03;;;;;;;4.40;1.20;;;;;;;7.25;100.00;99013.53;6176061;23;20215;-59
2022/11/03 00:36:32;;;;;;;6.03;1.47;;;;;;;7.28;100.00;99008.09;6172234;23;20226;-60
2022/11/03 00:38:59;;;;;;;10.70;1.30;;;;;;;7.21;100.00;99010.34;6176829;23;20215;-60
2022/11/03 00:41:27;;;;;;;10.07;1.70;;;;;;;7.19;100.00;99009.66;6173472;23;20733;-60
2022/11/03 00:43:54;;;;;;;6.13;1.27;;;;;;;7.15;100.00;99000.44;6176406;23;20207;-60
2022/11/03 00:46:22;;;;;;;4.97;1.10;;;;;;;7.09;100.00;98990.53;6173220;23;20578;-59
2022/11/03 00:48:49;;;;;;;9.00;1.23;;;;;;;7.07;100.00;98990.66;6176908;23;20204;-59
2022/11/03 00:51:18;;;;;;;10.63;1.60;;;;;;;7.09;100.00;98987.94;6172124;23;20207;-60
2022/11/03 00:53:46;;;;;;;5.00;1.53;;;;;;;7.03;100.00;98985.81;6149611;23;20554;-60
2022/11/03 00:56:14;;;;;;;5.37;1.27;;;;;;;6.99;100.00;98987.00;6172057;23;20212;-61
2022/11/03 00:58:43;;;;;;;4.10;1.50;;;;;;;6.93;100.00;98986.53;6175001;23;20203;-60
2022/11/03 01:01:12;;;;;;;9.13;1.37;;;;;;;7.03;100.00;98991.00;6171906;23;20200;-56
2022/11/03 01:03:40;;;;;;;8.07;1.70;;;;;;;7.00;100.00;98991.25;6175532;23;20212;-58
2022/11/03 01:08:53;;;;;;;5.67;1.37;;;;;;;6.92;100.00;99000.44;6173682;23;20205;-57
2022/11/03 01:14:07;;;;;;;8.17;1.30;;;;;;;6.97;100.00;99005.28;6175130;23;20196;-58
2022/11/03 01:16:34;;;;;;;6.23;1.43;;;;;;;6.87;100.00;99005.16;6172916;23;20201;-59
2022/11/03 01:19:01;;;;;;;4.70;1.30;;;;;;;6.82;100.00;99009.06;6175914;23;20717;-60
2022/11/03 01:21:27;;;;;;;5.10;1.50;;;;;;;6.80;100.00;98998.78;6172146;23;20215;-58
2022/11/03 01:23:54;;;;;;;11.57;1.13;;;;;;;6.82;100.00;99006.47;6175375;23;20639;-59
2022/11/03 01:26:21;;;;;;;4.00;1.20;;;;;;;6.78;100.00;98998.94;6145435;23;20514;-59
2022/11/03 01:28:48;;;;;;;6.43;1.10;;;;;;;6.81;100.00;98997.03;6175769;23;20719;-59
2022/11/03 01:31:18;;;;;;;4.97;1.17;;;;;;;6.67;100.00;98992.88;6171588;23;20250;-59
2022/11/03 01:33:45;;;;;;;8.43;1.30;;;;;;;6.59;100.00;98994.28;6174798;23;20572;-59
2022/11/03 01:36:13;;;;;;;5.80;1.37;;;;;;;6.56;100.00;98988.53;6170190;23;20207;-59
2022/11/03 01:38:40;;;;;;;3.87;1.30;;;;;;;6.46;100.00;98980.59;6174990;23;20223;-60
2022/11/03 01:41:09;;;;;;;6.00;1.60;;;;;;;6.46;100.00;98983.19;6173928;23;20239;-59
2022/11/03 01:43:39;;;;;;;5.60;1.57;;;;;;;6.44;100.00;98972.94;6172727;23;20204;-57
2022/11/03 01:46:12;;;;;;;7.47;1.30;;;;;;;6.39;100.00;98966.44;6174312;23;20215;-59
2022/11/03 01:48:45;;;;;;;5.87;1.40;;;;;;;6.35;100.00;98960.69;6173054;23;20260;-59
2022/11/03 01:51:17;;;;;;;9.10;1.60;;;;;;;6.31;100.00;98956.66;6171912;23;20207;-57
2022/11/03 01:53:47;;;;;;;4.00;0.80;;;;;;;6.30;100.00;98950.66;6175645;23;20203;-59
2022/11/03 01:56:16;;;;;;;4.57;1.57;;;;;;;6.31;100.00;98946.28;6171249;23;20645;-60
2022/11/03 01:58:45;;;;;;;4.90;0.90;;;;;;;6.30;100.00;98945.47;6175463;23;20203;-61
2022/11/03 02:01:12;;;;;;;4.00;1.43;;;;;;;6.37;100.00;98940.66;6171413;23;20212;-56
2022/11/03 02:03:45;;;;;;;5.30;1.37;;;;;;;6.36;100.00;98931.22;6175374;23;20211;-56
2022/11/03 02:06:12;;;;;;;3.20;0.93;;;;;;;6.40;100.00;98936.97;6170848;23;20203;-58
2022/11/03 02:08:43;;;;;;;7.50;1.17;;;;;;;6.39;100.00;98936.16;6174754;23;20203;-55
2022/11/03 02:13:51;;;;;;;4.83;1.00;;;;;;;6.35;100.00;98930.41;6173862;23;20202;-59
2022/11/03 02:16:19;;;;;;;4.80;1.37;;;;;;;6.36;100.00;98926.03;6171229;23;20203;-57
2022/11/03 02:18:47;;;;;;;4.37;1.37;;;;;;;6.33;100.00;98916.72;6175967;23;20203;-60
2022/11/03 02:21:25;;;;;;;4.97;1.23;;;;;;;6.41;100.00;98915.28;6171575;23;20278;-60
2022/11/03 02:24:00;;;;;;;4.67;1.10;;;;;;;6.34;100.00;98908.00;6174159;23;20199;-61
2022/11/03 02:26:28;;;;;;;6.87;1.37;;;;;;;6.33;100.00;98896.00;6170827;23;20290;-60
2022/11/03 02:28:55;;;;;;;10.77;1.57;;;;;;;6.35;100.00;98891.50;6175012;23;20716;-59
2022/11/03 02:31:28;;;;;;;6.80;1.30;;;;;;;6.41;100.00;98881.59;6170944;23;20204;-59
2022/11/03 02:34:00;;;;;;;5.20;1.00;;;;;;;6.41;100.00;98876.41;6174898;23;20203;-60
2022/11/03 02:36:31;;;;;;;9.07;1.40;;;;;;;6.32;100.00;98872.75;6171203;23;20254;-59
2022/11/03 02:39:00;;;;;;;7.27;1.10;;;;;;;6.31;100.00;98860.72;6175087;23;20550;-58
2022/11/03 02:41:31;;;;;;;10.53;1.83;;;;;;;6.31;100.00;98864.16;6171534;23;20208;-58
2022/11/03 02:43:59;;;;;;;3.83;1.13;;;;;;;6.35;100.00;98865.59;6174728;23;20196;-58
2022/11/03 02:46:27;;;;;;;3.40;1.07;;;;;;;6.42;100.00;98863.34;6170617;23;20206;-58
2022/11/03 02:48:56;;;;;;;5.43;1.03;;;;;;;6.44;100.00;98861.44;6174540;23;20562;-57
2022/11/03 02:51:23;;;;;;;5.20;1.23;;;;;;;6.47;100.00;98850.00;6170311;23;20258;-67
2022/11/03 02:54:00;;;;;;;4.43;2.20;;;;;;;6.63;100.00;98858.22;6174934;23;20200;-58
2022/11/03 02:56:31;;;;;;;4.03;1.33;;;;;;;6.54;100.00;98850.34;6171112;23;20881;-59
2022/11/03 02:59:01;;;;;;;4.00;1.23;;;;;;;6.50;100.00;98844.56;6175091;23;20242;-60
2022/11/03 03:01:35;;;;;;;5.37;1.57;;;;;;;6.67;100.00;98832.06;6143692;23;20410;-60
2022/11/03 03:04:07;;;;;;;10.70;1.30;;;;;;;6.66;100.00;98823.47;6175039;23;20250;-59
2022/11/03 03:06:39;;;;;;;4.80;1.10;;;;;;;6.57;100.00;98825.00;6171409;23;20261;-60
2022/11/03 03:09:10;;;;;;;6.53;1.20;;;;;;;6.55;100.00;98821.69;6173098;23;20262;-59
2022/11/03 03:11:42;;;;;;;8.33;1.30;;;;;;;6.57;100.00;98825.00;6172404;23;20208;-58
2022/11/03 03:14:13;;;;;;;7.47;1.30;;;;;;;6.54;100.00;98820.03;6173934;23;20249;-60
2022/11/03 03:16:55;;;;;;;9.03;1.63;;;;;;;6.54;100.00;98814.06;6172487;23;20207;-59
2022/11/03 03:19:30;;;;;;;5.53;1.20;;;;;;;6.47;100.00;98808.50;6171653;23;20204;-60
2022/11/03 03:22:01;;;;;;;8.53;1.43;;;;;;;6.49;100.00;98810.03;6175099;23;20215;-60
2022/11/03 03:24:36;;;;;;;2.30;1.00;;;;;;;6.59;100.00;98799.75;6171672;23;20262;-61
2022/11/03 03:27:09;;;;;;;6.33;1.20;;;;;;;6.52;100.00;98795.19;6175013;23;20282;-59
2022/11/03 03:29:40;;;;;;;7.80;1.40;;;;;;;6.46;100.00;98786.09;6171627;23;20692;-59
2022/11/03 03:32:09;;;;;;;3.77;1.40;;;;;;;6.43;100.00;98784.59;6173959;23;20266;-59
2022/11/03 03:34:39;;;;;;;4.50;1.00;;;;;;;6.45;100.00;98790.50;6172690;23;20235;-58
2022/11/03 03:37:06;;;;;;;5.23;2.03;;;;;;;6.44;100.00;98778.47;6175329;23;20200;-59
2022/11/03 03:39:36;;;;;;;5.53;1.50;;;;;;;6.48;100.00;98774.69;6174179;23;20200;-60
2022/11/03 03:42:07;;;;;;;7.70;1.47;;;;;;;6.46;100.00;98773.16;6176298;23;20262;-59
2022/11/03 03:44:35;;;;;;;3.90;1.20;;;;;;;6.54;100.00;98768.19;6173246;23;20268;-58
2022/11/03 03:47:06;;;;;;;6.70;1.50;;;;;;;6.50;100.00;98761.59;6176437;23;20250;-60
2022/11/03 03:49:33;;;;;;;6.10;1.30;;;;;;;6.44;100.00;98762.06;6173358;23;20208;-59
2022/11/03 03:51:59;;;;;;;5.10;1.33;;;;;;;6.46;100.00;98758.44;6176616;23;20274;-61
2022/11/03 03:54:26;;;;;;;8.63;1.40;;;;;;;6.44;100.00;98757.72;6173212;23;20204;-60
2022/11/03 03:56:57;;;;;;;7.30;1.67;;;;;;;6.51;100.00;98750.28;6176167;23;20199;-61
2022/11/03 03:59:25;;;;;;;6.90;1.50;;;;;;;6.53;100.00;98752.75;6172561;23;20363;-59
2022/11/03 04:01:51;;;;;;;4.90;1.67;;;;;;;6.48;100.00;98746.16;6176507;23;20203;-60
2022/11/03 04:04:18;;;;;;;10.50;1.80;;;;;;;6.49;100.00;98734.84;6172446;23;20204;-59
2022/11/03 04:06:44;;;;;;;5.30;1.43;;;;;;;6.53;100.00;98739.78;6175339;23;20208;-59
2022/11/03 04:09:11;;;;;;;9.57;1.47;;;;;;;6.53;100.00;98732.81;6172588;23;20207;-59
2022/11/03 04:22:48;;;;;;;7.37;1.47;;;;;;;6.65;100.00;98736.22;6173062;23;20670;-59
2022/11/03 04:25:15;;;;;;;8.57;1.57;;;;;;;6.64;100.00;98737.16;6171377;23;20235;-59
2022/11/03 04:27:43;;;;;;;7.67;1.73;;;;;;;6.59;100.00;98737.50;6175316;23;20705;-59
2022/11/03 04:32:54;;;;;;;6.43;1.43;;;;;;;6.54;100.00;98736.25;6154525;23;20301;-59
2022/11/03 04:35:23;;;;;;;5.50;1.70;;;;;;;6.63;100.00;98743.28;6172076;23;20199;-60
2022/11/03 04:37:54;;;;;;;6.27;1.40;;;;;;;6.58;100.00;98738.47;6176831;23;20202;-60
2022/11/03 04:40:20;;;;;;;7.30;1.43;;;;;;;6.52;100.00;98735.53;6173024;23;20208;-60
2022/11/03 04:42:47;;;;;;;3.77;1.50;;;;;;;6.43;100.00;98732.72;6176577;23;20214;-58
2022/11/03 04:45:26;;;;;;;5.23;1.40;;;;;;;6.39;100.00;98736.50;6171975;23;20207;-58
2022/11/03 04:47:54;;;;;;;6.57;1.43;;;;;;;6.42;100.00;98728.50;6176441;23;20204;-60
2022/11/03 04:50:23;;;;;;;8.13;2.07;;;;;;;6.41;100.00;98726.00;6172194;23;20211;-59
2022/11/03 04:52:54;;;;;;;8.43;1.93;;;;;;;6.37;100.00;98729.78;6175712;23;20262;-59
2022/11/03 04:55:20;;;;;;;3.73;1.40;;;;;;;6.37;100.00;98724.59;6172125;23;20235;-60
2022/11/03 04:57:48;;;;;;;7.33;1.80;;;;;;;6.30;100.00;98714.75;6176104;23;20230;-59
2022/11/03 05:00:17;;;;;;;5.00;1.33;;;;;;;6.30;100.00;98713.91;6172220;23;20200;-59
2022/11/03 05:02:44;;;;;;;3.80;1.47;;;;;;;6.31;100.00;98711.22;6175889;23;20220;-59
2022/11/03 05:05:22;;;;;;;4.43;1.57;;;;;;;6.32;100.00;98712.84;6145591;23;20262;-59
2022/11/03 05:07:51;;;;;;;8.53;1.70;;;;;;;6.37;100.00;98701.28;6175907;23;20203;-59
2022/11/03 05:10:20;;;;;;;6.93;1.63;;;;;;;6.30;100.00;98695.75;6171782;23;20208;-59
2022/11/03 05:12:48;;;;;;;4.03;1.30;;;;;;;6.25;100.00;98701.31;6176094;23;20199;-59
2022/11/03 05:15:28;;;;;;;6.17;2.03;;;;;;;6.21;100.00;98707.69;6172153;23;20199;-60
2022/11/03 05:17:56;;;;;;;4.20;1.40;;;;;;;6.24;100.00;98704.84;6176181;23;20282;-60
2022/11/03 05:20:31;;;;;;;7.07;1.40;;;;;;;6.28;100.00;98690.72;6171721;23;20204;-59
2022/11/03 05:22:59;;;;;;;7.63;1.50;;;;;;;6.27;100.00;98681.28;6176055;23;20211;-60
2022/11/03 05:25:39;;;;;;;4.63;1.33;;;;;;;6.23;100.00;98682.47;6145430;23;20222;-60
2022/11/03 05:28:16;;;;;;;5.13;1.73;;;;;;;6.28;100.00;98666.53;6174794;23;20211;-59
2022/11/03 05:30:42;;;;;;;5.40;1.60;;;;;;;6.23;100.00;98666.09;6172999;23;20286;-59
2022/11/03 05:33:20;;;;;;;7.77;1.30;;;;;;;6.20;100.00;98657.59;6173943;23;20565;-58
2022/11/03 05:35:48;;;;;;;3.13;1.37;;;;;;;6.30;100.00;98646.50;6172480;23;20238;-59
2022/11/03 05:38:18;;;;;;;7.30;1.70;;;;;;;6.25;100.00;98646.03;6171352;23;20254;-60
2022/11/03 05:40:45;;;;;;;7.73;1.37;;;;;;;6.27;100.00;98652.78;6175956;23;20199;-59
2022/11/03 05:43:14;;;;;;;8.20;1.80;;;;;;;6.26;100.00;98645.94;6172082;23;20254;-59
2022/11/03 05:45:41;;;;;;;7.70;1.87;;;;;;;6.22;100.00;98639.34;6175293;23;20214;-59
2022/11/03 05:48:17;;;;;;;6.97;1.83;;;;;;;6.20;100.00;98641.25;6174629;23;20204;-59
2022/11/03 05:50:44;;;;;;;7.43;1.50;;;;;;;6.24;100.00;98637.47;6173275;23;20245;-61
2022/11/03 05:53:25;;;;;;;34.03;16.47;;;;;;;6.37;100.00;98636.44;6171814;23;20207;-61
2022/11/03 05:55:52;;;;;;;11.20;4.23;;;;;;;6.39;100.00;98632.81;6175567;23;20254;-60
2022/11/03 05:58:24;;;;;;;6.77;2.27;;;;;;;6.39;100.00;98625.03;6171543;23;20254;-61
2022/11/03 06:00:51;;;;;;;7.70;2.10;;;;;;;6.40;100.00;98633.63;6176035;23;20209;-60
2022/11/03 06:03:22;;;;;;;5.87;2.30;;;;;;;6.41;100.00;98628.31;6171923;23;20203;-60
2022/11/03 06:05:49;;;;;;;6.07;1.60;;;;;;;6.43;100.00;98628.19;6175214;23;20849;-61
2022/11/03 06:08:20;;;;;;;5.07;2.10;;;;;;;6.43;100.00;98630.78;6171419;23;20254;-60
2022/11/03 06:10:50;;;;;;;6.43;1.60;;;;;;;6.44;100.00;98625.47;6175203;23;20669;-60
2022/11/03 06:13:20;;;;;;;6.03;1.87;;;;;;;6.55;100.00;98613.41;6171841;23;20725;-60
2022/11/03 06:15:50;;;;;;;7.23;1.83;;;;;;;6.54;100.00;98614.34;6175370;23;20752;-59
2022/11/03 06:18:21;;;;;;;6.10;1.70;;;;;;;6.52;100.00;98611.88;6169888;23;20206;-61
2022/11/03 06:20:52;;;;;;;5.90;1.60;;;;;;;6.48;100.00;98606.13;6175150;23;20200;-60
2022/11/03 06:23:20;;;;;;;5.23;1.83;;;;;;;6.55;100.00;98598.66;6171748;23;20200;-61
2022/11/03 06:25:48;;;;;;;6.23;2.50;;;;;;;6.54;100.00;98591.03;6175014;23;20290;-60
2022/11/03 06:28:20;;;;;;;10.43;5.53;;;;;;;6.55;100.00;98593.47;6171345;23;20200;-58
2022/11/03 06:30:48;;;;;;;15.53;5.77;;;;;;;6.58;100.00;98590.63;6175230;23;20666;-59
2022/11/03 06:33:20;;;;;;;5.13;2.27;;;;;;;6.65;100.00;98589.19;6171446;23;20203;-60
2022/11/03 06:35:47;;;;;;;3.73;2.00;;;;;;;6.65;100.00;98580.59;6174886;23;20250;-60
2022/11/03 06:38:20;;;;;;;7.13;2.03;;;;;;;6.67;100.00;98583.88;6171338;23;20630;-60
2022/11/03 06:40:50;;;;;;;5.77;3.10;;;;;;;6.72;100.00;98570.50;6174044;23;20200;-59
2022/11/03 06:43:23;;;;;;;15.47;5.63;;;;;;;6.80;100.00;98570.69;6170398;23;20605;-60
2022/11/03 06:45:53;;;;;;;17.77;10.03;;;;;;;6.85;100.00;98585.91;6174193;23;20654;-59
2022/11/03 06:48:25;;;;;;;15.20;8.60;;;;;;;6.88;100.00;98578.66;6170497;23;20203;-59
2022/11/03 06:50:53;;;;;;;7.33;3.87;;;;;;;6.98;100.00;98593.47;6174122;23;20208;-59
2022/11/03 06:53:23;;;;;;;18.77;7.10;;;;;;;7.03;100.00;98599.09;6171095;23;20302;-59
2022/11/03 06:55:51;;;;;;;34.53;12.90;;;;;;;7.14;100.00;98606.81;6175092;23;20207;-58
2022/11/03 06:58:25;;;;;;;33.60;10.47;;;;;;;7.21;100.00;98594.94;6170790;23;20214;-59
2022/11/03 07:00:52;;;;;;;17.77;7.37;;;;;;;7.27;100.00;98592.78;6174756;23;20649;-59
2022/11/03 07:03:23;;;;;;;10.37;3.47;;;;;;;7.32;100.00;98599.22;6170392;23;20200;-59
2022/11/03 07:05:50;;;;;;;4.83;2.13;;;;;;;7.39;100.00;98597.75;6174186;23;20200;-60
2022/11/03 07:08:23;;;;;;;13.60;2.67;;;;;;;7.46;100.00;98594.63;6171224;23;20203;-59
2022/11/03 07:10:57;;;;;;;7.97;2.47;;;;;;;7.52;100.00;98589.72;6176788;23;20220;-59
2022/11/03 07:13:25;;;;;;;7.50;2.90;;;;;;;7.59;100.00;98592.63;6172637;23;20223;-58
2022/11/03 07:15:52;;;;;;;9.40;3.40;;;;;;;7.67;100.00;98582.38;6176320;23;20203;-60
2022/11/03 07:18:23;;;;;;;8.57;3.13;;;;;;;7.75;100.00;98573.09;6172451;23;20204;-58
2022/11/03 07:20:51;;;;;;;7.33;3.27;;;;;;;7.81;100.00;98577.78;6176609;23;20644;-59
2022/11/03 07:23:22;;;;;;;7.63;3.77;;;;;;;7.87;100.00;98572.03;6172830;23;20262;-60
2022/11/03 07:25:53;;;;;;;6.97;3.20;;;;;;;7.94;100.00;98560.16;6176226;23;20554;-58
2022/11/03 07:28:21;;;;;;;8.40;3.43;;;;;;;8.03;100.00;98545.50;6172971;23;20548;-60
2022/11/03 07:30:48;;;;;;;8.57;3.10;;;;;;;8.11;100.00;98543.03;6175813;23;20196;-60
2022/11/03 07:33:18;;;;;;;8.67;3.10;;;;;;;8.24;100.00;98528.94;6172625;23;20804;-59
2022/11/03 07:35:47;;;;;;;7.20;2.83;;;;;;;8.31;100.00;98522.22;6176052;23;20205;-60
2022/11/03 07:38:17;;;;;;;7.60;2.47;;;;;;;8.41;100.00;98524.81;6172783;23;20670;-59
2022/11/03 07:40:43;;;;;;;6.93;3.93;;;;;;;8.50;100.00;98515.34;6176401;23;20199;-60
2022/11/03 07:43:18;;;;;;;7.70;3.23;;;;;;;8.60;100.00;98512.75;6172532;23;20202;-60
2022/11/03 07:45:48;;;;;;;9.53;5.20;;;;;;;8.69;100.00;98504.09;6175991;23;20545;-60
2022/11/03 07:48:20;;;;;;;5.53;3.17;;;;;;;8.82;100.00;98517.63;6172326;23;20698;-58
2022/11/03 07:50:47;;;;;;;9.17;1.90;;;;;;;8.94;100.00;98525.25;6175871;23;20718;-60
2022/11/03 07:53:19;;;;;;;6.50;1.73;;;;;;;9.07;100.00;98514.50;6172825;23;20200;-59
2022/11/03 07:55:46;;;;;;;7.13;1.70;;;;;;;9.18;100.00;98526.50;6176220;23;20205;-59
2022/11/03 07:58:25;;;;;;;4.30;1.40;;;;;;;9.28;100.00;98522.91;6172026;23;20204;-60
2022/11/03 08:00:56;;;;;;;4.53;1.80;;;;;;;9.37;100.00;98518.59;6176343;23;20523;-59
2022/11/03 08:03:41;;;;;;;6.70;2.80;;;;;;;9.46;100.00;98516.91;6172517;23;20221;-61
2022/11/03 08:06:08;;;;;;;4.60;2.43;;;;;;;9.50;100.00;98518.28;6174795;23;20208;-60
2022/11/03 08:08:34;;;;;;;8.07;2.10;;;;;;;9.53;100.00;98520.59;6173538;23;20512;-60
2022/11/03 08:11:01;;;;;;;6.30;2.40;;;;;;;9.60;100.00;98521.59;6176257;23;20208;-59
2022/11/03 08:13:29;;;;;;;3.77;2.50;;;;;;;9.72;100.00;98513.56;6172274;23;20262;-60
2022/11/03 08:15:56;;;;;;;6.37;3.90;;;;;;;9.82;99.69;98516.94;6175683;23;20204;-60
2022/11/03 08:18:23;;;;;;;9.40;3.00;;;;;;;9.92;99.11;98508.22;6172616;23;20211;-59
2022/11/03 08:20:50;;;;;;;8.83;2.80;;;;;;;9.90;97.56;98492.75;6175472;23;20209;-59
2022/11/03 08:23:16;;;;;;;7.13;2.67;;;;;;;10.07;97.35;98493.69;6172482;23;20209;-59
2022/11/03 08:25:43;;;;;;;6.53;2.87;;;;;;;10.16;97.07;98494.56;6175655;23;20564;-60
2022/11/03 08:28:10;;;;;;;7.57;2.73;;;;;;;10.21;96.29;98486.28;6172577;23;20201;-61
2022/11/03 08:30:37;;;;;;;9.27;2.90;;;;;;;10.24;94.72;98486.00;6176019;23;20207;-61
2022/11/03 08:33:04;;;;;;;8.33;3.40;;;;;;;10.38;95.42;98471.56;6176049;23;20671;-60
2022/11/03 08:35:31;;;;;;;7.90;4.20;;;;;;;10.51;96.01;98484.25;6172983;23;20232;-61
2022/11/03 08:37:58;;;;;;;11.97;4.70;;;;;;;10.61;94.86;98482.31;6176524;23;20272;-60
2022/11/03 08:40:24;;;;;;;11.33;4.43;;;;;;;10.69;93.38;98478.97;6172842;23;20291;-61
2022/11/03 08:43:40;;;;;;;7.53;3.67;;;;;;;10.69;92.08;98478.97;6175945;23;20271;-59
2022/11/03 08:49:49;;;;;;;10.20;3.23;;;;;;;10.84;90.03;98479.19;6169696;23;20201;-60
2022/11/03 08:52:15;;;;;;;7.40;2.57;;;;;;;10.93;89.37;98483.47;6171497;23;20208;-62
2022/11/03 08:54:42;;;;;;;6.50;2.53;;;;;;;10.87;87.36;98487.53;6175404;23;20209;-59
2022/11/03 08:57:09;;;;;;;5.07;3.03;;;;;;;10.80;86.84;98489.13;6174004;23;20201;-60
2022/11/03 08:59:35;;;;;;;9.37;3.30;;;;;;;10.62;85.37;98478.75;6173256;23;20201;-60
2022/11/03 09:02:02;;;;;;;6.90;2.60;;;;;;;10.67;86.11;98473.88;6175626;23;20703;-60
2022/11/03 09:04:28;;;;;;;8.13;3.20;;;;;;;10.75;86.67;98473.13;6170423;23;20234;-59
2022/11/03 09:06:56;;;;;;;5.63;2.83;;;;;;;10.78;85.24;98472.81;6174988;23;20201;-60
2022/11/03 09:09:23;;;;;;;12.40;3.30;;;;;;;10.86;87.04;98466.78;6171447;23;20213;-60
2022/11/03 09:11:49;;;;;;;6.57;2.90;;;;;;;11.02;86.90;98464.25;6175194;23;20255;-60
2022/11/03 09:14:17;;;;;;;11.67;3.03;;;;;;;10.96;86.75;98451.81;6171275;23;20207;-60
2022/11/03 09:16:43;;;;;;;6.77;2.53;;;;;;;11.10;84.83;98447.81;6175224;23;20255;-59
2022/11/03 09:19:10;;;;;;;12.47;3.23;;;;;;;11.16;84.92;98441.91;6171266;23;20591;-60
2022/11/03 09:21:36;;;;;;;6.17;2.67;;;;;;;11.18;84.51;98429.50;6175044;23;20217;-59
2022/11/03 09:24:06;;;;;;;7.33;2.70;;;;;;;10.98;84.60;98433.41;6175750;23;20525;-60
2022/11/03 09:26:32;;;;;;;7.87;2.63;;;;;;;11.14;85.11;98422.16;6171130;23;20217;-59
2022/11/03 09:28:59;;;;;;;6.33;2.83;;;;;;;11.17;84.14;98422.66;6175319;23;20210;-60
2022/11/03 09:31:27;;;;;;;5.10;2.53;;;;;;;11.35;83.13;98408.66;6171499;23;20698;-60
2022/11/03 09:33:54;;;;;;;8.53;3.23;;;;;;;11.43;83.69;98413.88;6175211;23;20205;-59
2022/11/03 09:36:20;;;;;;;11.70;2.80;;;;;;;11.50;84.17;98406.22;6171309;23;20592;-61
2022/11/03 09:38:47;;;;;;;3.57;2.20;;;;;;;11.70;82.83;98411.94;6175258;23;20202;-60
2022/11/03 09:41:17;;;;;;;9.43;2.67;;;;;;;11.86;81.59;98413.75;6170948;23;20513;-60
2022/11/03 09:43:44;;;;;;;9.57;2.87;;;;;;;11.89;80.42;98408.19;6174870;23;20217;-59
2022/11/03 09:46:11;;;;;;;6.07;2.90;;;;;;;11.91;80.56;98403.59;6170939;23;20194;-59
2022/11/03 09:48:38;;;;;;;8.13;3.40;;;;;;;11.93;81.19;98399.03;6175247;23;20209;-59
2022/11/03 09:51:06;;;;;;;8.67;3.20;;;;;;;11.99;80.56;98409.81;6175167;23;20668;-59
2022/11/03 09:53:33;;;;;;;7.57;3.80;;;;;;;11.85;80.74;98398.22;6172017;23;20206;-59
2022/11/03 09:55:59;;;;;;;12.20;6.47;;;;;;;11.90;80.49;98394.13;6174574;23;20195;-60
2022/11/03 09:58:27;;;;;;;13.23;5.30;;;;;;;11.89;84.03;98395.09;6171557;23;20214;-61
2022/11/03 10:00:54;;;;;;;8.83;4.63;;;;;;;11.88;82.21;98393.47;6175003;23;20685;-59
2022/11/03 10:03:20;;;;;;;10.87;3.90;;;;;;;11.86;81.59;98384.16;6171212;23;20497;-60
2022/11/03 10:05:48;;;;;;;8.57;4.30;;;;;;;11.74;81.84;98391.50;6174376;23;20198;-59
2022/11/03 10:08:22;;;;;;;8.47;3.87;;;;;;;11.57;82.98;98386.31;6171235;23;20198;-60
2022/11/03 10:10:48;;;;;;;13.57;5.10;;;;;;;11.56;85.17;98381.22;6174848;23;20857;-61
2022/11/03 10:13:23;;;;;;;10.93;5.03;;;;;;;11.58;85.59;98384.50;6171473;23;20202;-60
2022/11/03 10:15:52;;;;;;;13.90;5.47;;;;;;;11.71;87.34;98384.81;6174971;23;20209;-60
2022/11/03 10:18:19;;;;;;;13.90;5.10;;;;;;;11.65;85.34;98369.78;6171044;23;20228;-59
2022/11/03 10:20:46;;;;;;;11.03;5.80;;;;;;;11.86;85.65;98361.44;6174821;23;20225;-61
2022/11/03 10:23:12;;;;;;;10.27;4.90;;;;;;;11.94;84.71;98369.25;6144499;23;20581;-61
2022/11/03 10:25:40;;;;;;;12.53;5.40;;;;;;;12.04;84.06;98357.84;6174225;23;20228;-59
2022/11/03 10:28:19;;;;;;;8.43;4.83;;;;;;;12.02;83.12;98341.50;6173003;23;20222;-60
2022/11/03 10:30:55;;;;;;;10.13;4.83;;;;;;;12.11;82.61;98356.19;6172004;23;20209;-60
2022/11/03 10:33:27;;;;;;;7.90;4.20;;;;;;;12.08;82.69;98349.50;6170669;23;20212;-60
2022/11/03 10:35:56;;;;;;;10.53;5.53;;;;;;;12.19;83.54;98337.84;6174374;23;20213;-59
2022/11/03 10:38:27;;;;;;;12.13;5.23;;;;;;;12.34;82.66;98335.34;6170683;23;20206;-59
2022/11/03 10:40:54;;;;;;;10.20;5.43;;;;;;;12.32;82.64;98332.06;6174841;23;20261;-60
2022/11/03 10:43:36;;;;;;;12.97;5.40;;;;;;;12.40;80.74;98326.81;6170274;23;20200;-59
2022/11/03 10:46:18;;;;;;;10.33;5.03;;;;;;;12.53;80.90;98310.56;6174461;23;20281;-65
2022/11/03 10:48:44;;;;;;;13.13;4.80;;;;;;;12.57;80.18;98307.63;6142406;23;20229;-65
2022/11/03 10:51:12;;;;;;;10.93;5.30;;;;;;;12.45;79.85;98301.94;6141734;23;20211;-65
2022/11/03 10:53:41;;;;;;;12.30;5.40;;;;;;;12.58;81.02;98296.16;6145174;23;20204;-65
2022/11/03 10:56:07;;;;;;;9.57;4.97;;;;;;;12.76;81.37;98290.63;6143842;23;20539;-65
2022/11/03 10:58:36;;;;;;;8.80;4.97;;;;;;;12.69;79.50;98277.44;6141925;23;20204;-65
2022/11/03 11:01:03;;;;;;;11.20;5.43;;;;;;;12.57;79.71;98286.66;6144792;23;20207;-65
2022/11/03 11:03:32;;;;;;;11.90;4.73;;;;;;;12.65;80.16;98268.28;6141590;23;20243;-65
2022/11/03 11:05:58;;;;;;;12.57;5.60;;;;;;;12.81;81.34;98267.38;6144868;23;20291;-65
2022/11/03 11:08:25;;;;;;;11.53;5.07;;;;;;;12.93;79.10;98268.59;6141494;23;21186;-65
2022/11/03 11:10:53;;;;;;;13.40;5.07;;;;;;;12.86;78.19;98272.91;6144795;23;20251;-65
2022/11/03 11:13:26;;;;;;;11.83;4.80;;;;;;;12.81;80.41;98260.31;6141226;23;20195;-65
2022/11/03 11:15:55;;;;;;;12.07;5.13;;;;;;;12.96;77.45;98254.31;6144719;23;20213;-65
2022/11/03 11:19:10;;;;;;;10.67;4.50;;;;;;;12.95;79.24;98255.31;6141370;23;20208;-65
2022/11/03 11:22:14;;;;;;;9.93;4.60;;;;;;;12.94;79.37;98238.78;6115357;23;20216;-65
2022/11/03 11:24:58;;;;;;;18.07;7.03;;;;;;;12.87;79.03;98232.63;6142082;23;20233;-65
2022/11/03 11:27:56;;;;;;;13.97;5.00;;;;;;;12.88;79.68;98236.88;6141027;23;20215;-65
2022/11/03 11:31:03;;;;;;;10.63;4.40;;;;;;;12.95;81.33;98231.72;6141446;23;20279;-65
2022/11/03 11:33:34;;;;;;;13.93;4.73;;;;;;;13.18;79.77;98231.72;6141051;23;20216;-65
2022/11/03 11:36:27;;;;;;;12.90;4.30;;;;;;;13.15;82.12;98216.34;6144537;23;20204;-65
2022/11/03 11:39:00;;;;;;;11.83;4.67;;;;;;;13.21;81.33;98214.81;6141898;23;20546;-65
2022/11/03 11:42:03;;;;;;;11.77;4.30;;;;;;;13.32;80.91;98203.06;6141342;23;20215;-65
2022/11/03 11:44:52;;;;;;;8.57;4.27;;;;;;;13.18;80.86;98189.78;6141380;23;20218;-65
2022/11/03 11:47:36;;;;;;;8.40;3.53;;;;;;;13.32;78.68;98189.97;6140668;23;20205;-65
2022/11/03 11:50:21;;;;;;;5.00;2.17;;;;;;;13.46;74.33;98177.91;6140120;23;20211;-65
2022/11/03 11:52:52;;;;;;;9.43;5.83;;;;;;;13.71;67.82;98173.19;6141825;23;20215;-65
2022/11/03 11:55:38;;;;;;;6.80;5.23;;;;;;;13.95;64.84;98161.56;6140943;23;20271;-65
2022/11/03 11:58:13;;;;;;;6.17;2.53;;;;;;;14.27;61.88;98164.75;6146803;23;20255;-65
2022/11/03 12:00:51;;;;;;;2.95;2.65;;;;;;;14.57;61.25;98158.56;6143013;23;20409;-65
2022/11/03 12:03:32;;;;;;;3.37;1.90;;;;;;;14.87;61.03;98154.00;6142676;23;20208;-65
2022/11/03 12:06:01;;;;;;;4.43;2.83;;;;;;;15.03;61.81;98147.66;6120228;23;20207;-65
2022/11/03 12:08:30;;;;;;;2.10;1.20;;;;;;;15.16;58.30;98146.94;6141869;23;20268;-65
2022/11/03 12:11:00;;;;;;;9.77;6.13;;;;;;;15.30;57.52;98134.72;6146363;23;20201;-65
2022/11/03 12:13:50;;;;;;;4.57;3.20;;;;;;;15.39;57.69;98126.63;6143104;23;20286;-65